sensor_id;sensor_type;location;lat;lon;timestamp;P1;durP1;ratioP1;P2;durP2;ratioP2
15933;SDS011;8066;48.776;11.384;2022-07-22T00:02:26;8.77;;;7.43;;
15933;SDS011;8066;48.776;11.384;2022-07-22T00:04:54;12.25;;;8.10;;
15933;SDS011;8066;48.776;11.384;2022-07-22T00:07:21;8.50;;;6.90;;
15933;SDS011;8066;48.776;11.384;2022-07-22T00:09:48;8.43;;;7.45;;
15933;SDS011;8066;48.776;11.384;2022-07-22T00:12:16;8.73;;;7.43;;
15933;SDS011;8066;48.776;11.384;2022-07-22T00:14:43;11.15;;;7.95;;
15933;SDS011;8066;48.776;11.384;2022-07-22T00:17:09;8.00;;;6.90;;
15933;SDS011;8066;48.776;11.384;2022-07-22T00:19:36;9.35;;;6.97;;
15933;SDS011;8066;48.776;11.384;2022-07-22T00:22:05;9.80;;;7.72;;
15933;SDS011;8066;48.776;11.384;2022-07-22T00:24:32;10.07;;;7.57;;
15933;SDS011;8066;48.776;11.384;2022-07-22T00:26:58;9.55;;;8.25;;
15933;SDS011;8066;48.776;11.384;2022-07-22T00:29:25;10.25;;;7.68;;
15933;SDS011;8066;48.776;11.384;2022-07-22T00:31:52;11.25;;;7.88;;
15933;SDS011;8066;48.776;11.384;2022-07-22T00:34:19;9.88;;;7.75;;
15933;SDS011;8066;48.776;11.384;2022-07-22T00:36:46;9.60;;;7.18;;
15933;SDS011;8066;48.776;11.384;2022-07-22T00:39:14;11.55;;;7.40;;
15933;SDS011;8066;48.776;11.384;2022-07-22T00:41:41;11.57;;;7.80;;
15933;SDS011;8066;48.776;11.384;2022-07-22T00:44:08;10.32;;;7.35;;
15933;SDS011;8066;48.776;11.384;2022-07-22T00:46:35;11.05;;;8.15;;
15933;SDS011;8066;48.776;11.384;2022-07-22T00:49:04;10.07;;;7.40;;
15933;SDS011;8066;48.776;11.384;2022-07-22T00:51:33;8.38;;;7.40;;
15933;SDS011;8066;48.776;11.384;2022-07-22T00:54:02;9.15;;;7.40;;
15933;SDS011;8066;48.776;11.384;2022-07-22T00:56:31;9.25;;;7.40;;
15933;SDS011;8066;48.776;11.384;2022-07-22T00:58:59;11.45;;;8.48;;
15933;SDS011;8066;48.776;11.384;2022-07-22T01:01:29;9.35;;;7.95;;
15933;SDS011;8066;48.776;11.384;2022-07-22T01:03:56;9.48;;;8.20;;
15933;SDS011;8066;48.776;11.384;2022-07-22T01:06:23;9.30;;;7.47;;
15933;SDS011;8066;48.776;11.384;2022-07-22T01:08:50;8.23;;;6.88;;
15933;SDS011;8066;48.776;11.384;2022-07-22T01:11:17;10.13;;;7.68;;
15933;SDS011;8066;48.776;11.384;2022-07-22T01:13:47;11.05;;;8.02;;
15933;SDS011;8066;48.776;11.384;2022-07-22T01:16:16;9.07;;;8.10;;
15933;SDS011;8066;48.776;11.384;2022-07-22T01:18:44;9.50;;;8.07;;
15933;SDS011;8066;48.776;11.384;2022-07-22T01:21:13;10.52;;;8.40;;
15933;SDS011;8066;48.776;11.384;2022-07-22T01:23:41;9.95;;;7.80;;
15933;SDS011;8066;48.776;11.384;2022-07-22T01:26:09;10.95;;;8.48;;
15933;SDS011;8066;48.776;11.384;2022-07-22T01:28:37;10.10;;;7.60;;
15933;SDS011;8066;48.776;11.384;2022-07-22T01:31:04;9.27;;;7.65;;
15933;SDS011;8066;48.776;11.384;2022-07-22T01:33:31;9.60;;;8.13;;
15933;SDS011;8066;48.776;11.384;2022-07-22T01:36:00;10.73;;;7.75;;
15933;SDS011;8066;48.776;11.384;2022-07-22T01:38:28;8.20;;;7.30;;
15933;SDS011;8066;48.776;11.384;2022-07-22T01:40:55;11.38;;;8.07;;
15933;SDS011;8066;48.776;11.384;2022-07-22T01:43:22;9.20;;;7.88;;
15933;SDS011;8066;48.776;11.384;2022-07-22T01:45:50;12.07;;;7.20;;
15933;SDS011;8066;48.776;11.384;2022-07-22T01:48:18;10.50;;;8.48;;
15933;SDS011;8066;48.776;11.384;2022-07-22T01:50:46;9.32;;;7.47;;
15933;SDS011;8066;48.776;11.384;2022-07-22T01:53:14;9.70;;;7.95;;
15933;SDS011;8066;48.776;11.384;2022-07-22T01:55:42;11.02;;;7.90;;
15933;SDS011;8066;48.776;11.384;2022-07-22T01:58:09;9.45;;;7.18;;
15933;SDS011;8066;48.776;11.384;2022-07-22T02:00:36;9.63;;;8.00;;
15933;SDS011;8066;48.776;11.384;2022-07-22T02:03:03;9.88;;;7.80;;
15933;SDS011;8066;48.776;11.384;2022-07-22T02:05:31;9.35;;;7.32;;
15933;SDS011;8066;48.776;11.384;2022-07-22T02:07:59;10.88;;;8.30;;
15933;SDS011;8066;48.776;11.384;2022-07-22T02:10:27;12.10;;;8.23;;
15933;SDS011;8066;48.776;11.384;2022-07-22T02:12:56;8.70;;;7.47;;
15933;SDS011;8066;48.776;11.384;2022-07-22T02:15:24;10.10;;;8.13;;
15933;SDS011;8066;48.776;11.384;2022-07-22T02:17:51;8.32;;;7.13;;
15933;SDS011;8066;48.776;11.384;2022-07-22T02:20:18;11.20;;;8.00;;
15933;SDS011;8066;48.776;11.384;2022-07-22T02:22:45;9.55;;;8.00;;
15933;SDS011;8066;48.776;11.384;2022-07-22T02:25:12;11.07;;;7.82;;
15933;SDS011;8066;48.776;11.384;2022-07-22T02:27:40;10.25;;;8.13;;
15933;SDS011;8066;48.776;11.384;2022-07-22T02:30:09;10.50;;;7.97;;
15933;SDS011;8066;48.776;11.384;2022-07-22T02:32:37;8.98;;;7.22;;
15933;SDS011;8066;48.776;11.384;2022-07-22T02:35:04;9.32;;;8.02;;
15933;SDS011;8066;48.776;11.384;2022-07-22T02:37:32;9.20;;;7.78;;
15933;SDS011;8066;48.776;11.384;2022-07-22T02:39:59;11.98;;;8.10;;
15933;SDS011;8066;48.776;11.384;2022-07-22T02:42:26;11.45;;;8.05;;
15933;SDS011;8066;48.776;11.384;2022-07-22T02:44:53;12.13;;;7.80;;
15933;SDS011;8066;48.776;11.384;2022-07-22T02:47:22;9.45;;;7.78;;
15933;SDS011;8066;48.776;11.384;2022-07-22T02:49:48;11.30;;;8.43;;
15933;SDS011;8066;48.776;11.384;2022-07-22T02:52:15;10.15;;;8.30;;
15933;SDS011;8066;48.776;11.384;2022-07-22T02:54:42;11.98;;;8.45;;
15933;SDS011;8066;48.776;11.384;2022-07-22T02:57:09;10.95;;;8.52;;
15933;SDS011;8066;48.776;11.384;2022-07-22T02:59:36;12.30;;;8.75;;
15933;SDS011;8066;48.776;11.384;2022-07-22T03:02:03;9.93;;;8.70;;
15933;SDS011;8066;48.776;11.384;2022-07-22T03:04:32;10.85;;;8.32;;
15933;SDS011;8066;48.776;11.384;2022-07-22T03:06:59;11.75;;;8.55;;
15933;SDS011;8066;48.776;11.384;2022-07-22T03:09:25;10.77;;;8.07;;
15933;SDS011;8066;48.776;11.384;2022-07-22T03:11:52;10.48;;;8.05;;
15933;SDS011;8066;48.776;11.384;2022-07-22T03:14:19;10.30;;;7.70;;
15933;SDS011;8066;48.776;11.384;2022-07-22T03:16:47;10.02;;;7.57;;
15933;SDS011;8066;48.776;11.384;2022-07-22T03:19:14;10.93;;;8.27;;
15933;SDS011;8066;48.776;11.384;2022-07-22T03:21:42;9.77;;;8.02;;
15933;SDS011;8066;48.776;11.384;2022-07-22T03:24:09;12.25;;;9.00;;
15933;SDS011;8066;48.776;11.384;2022-07-22T03:26:35;11.02;;;7.90;;
15933;SDS011;8066;48.776;11.384;2022-07-22T03:29:02;10.43;;;8.38;;
15933;SDS011;8066;48.776;11.384;2022-07-22T03:31:29;11.40;;;8.63;;
15933;SDS011;8066;48.776;11.384;2022-07-22T03:33:56;10.48;;;8.45;;
15933;SDS011;8066;48.776;11.384;2022-07-22T03:36:24;11.68;;;8.52;;
15933;SDS011;8066;48.776;11.384;2022-07-22T03:38:52;11.75;;;8.45;;
15933;SDS011;8066;48.776;11.384;2022-07-22T03:41:18;11.02;;;8.10;;
15933;SDS011;8066;48.776;11.384;2022-07-22T03:43:45;8.93;;;7.47;;
15933;SDS011;8066;48.776;11.384;2022-07-22T03:46:13;9.02;;;7.65;;
15933;SDS011;8066;48.776;11.384;2022-07-22T03:48:40;9.40;;;7.32;;
15933;SDS011;8066;48.776;11.384;2022-07-22T03:51:07;9.98;;;8.30;;
15933;SDS011;8066;48.776;11.384;2022-07-22T03:53:33;10.77;;;8.00;;
15933;SDS011;8066;48.776;11.384;2022-07-22T03:56:02;10.20;;;8.00;;
15933;SDS011;8066;48.776;11.384;2022-07-22T03:58:30;10.95;;;7.88;;
15933;SDS011;8066;48.776;11.384;2022-07-22T04:00:57;10.70;;;8.00;;
15933;SDS011;8066;48.776;11.384;2022-07-22T04:03:24;11.15;;;8.73;;
15933;SDS011;8066;48.776;11.384;2022-07-22T04:05:51;10.60;;;8.10;;
15933;SDS011;8066;48.776;11.384;2022-07-22T04:08:18;11.70;;;7.53;;
15933;SDS011;8066;48.776;11.384;2022-07-22T04:10:45;11.18;;;8.85;;
15933;SDS011;8066;48.776;11.384;2022-07-22T04:13:13;9.48;;;8.30;;
15933;SDS011;8066;48.776;11.384;2022-07-22T04:15:40;9.60;;;8.25;;
15933;SDS011;8066;48.776;11.384;2022-07-22T04:18:07;11.00;;;9.20;;
15933;SDS011;8066;48.776;11.384;2022-07-22T04:20:34;9.98;;;8.30;;
15933;SDS011;8066;48.776;11.384;2022-07-22T04:23:01;10.38;;;7.55;;
15933;SDS011;8066;48.776;11.384;2022-07-22T04:25:27;10.23;;;8.40;;
15933;SDS011;8066;48.776;11.384;2022-07-22T04:27:54;10.70;;;8.32;;
15933;SDS011;8066;48.776;11.384;2022-07-22T04:30:22;11.50;;;8.80;;
15933;SDS011;8066;48.776;11.384;2022-07-22T04:32:50;9.82;;;8.52;;
15933;SDS011;8066;48.776;11.384;2022-07-22T04:35:17;11.30;;;8.90;;
15933;SDS011;8066;48.776;11.384;2022-07-22T04:37:45;10.02;;;7.75;;
15933;SDS011;8066;48.776;11.384;2022-07-22T04:40:11;10.23;;;7.95;;
15933;SDS011;8066;48.776;11.384;2022-07-22T04:42:38;12.23;;;9.13;;
15933;SDS011;8066;48.776;11.384;2022-07-22T04:45:05;11.18;;;9.00;;
15933;SDS011;8066;48.776;11.384;2022-07-22T04:47:34;12.50;;;9.27;;
15933;SDS011;8066;48.776;11.384;2022-07-22T04:50:01;10.32;;;8.55;;
15933;SDS011;8066;48.776;11.384;2022-07-22T04:52:28;12.15;;;8.25;;
15933;SDS011;8066;48.776;11.384;2022-07-22T04:54:55;10.98;;;8.82;;
15933;SDS011;8066;48.776;11.384;2022-07-22T04:57:24;10.73;;;8.48;;
15933;SDS011;8066;48.776;11.384;2022-07-22T04:59:50;12.02;;;8.55;;
15933;SDS011;8066;48.776;11.384;2022-07-22T05:02:18;11.50;;;8.82;;
15933;SDS011;8066;48.776;11.384;2022-07-22T05:04:46;12.30;;;8.85;;
15933;SDS011;8066;48.776;11.384;2022-07-22T05:07:14;10.80;;;8.40;;
15933;SDS011;8066;48.776;11.384;2022-07-22T05:09:41;10.68;;;8.25;;
15933;SDS011;8066;48.776;11.384;2022-07-22T05:12:08;10.63;;;8.50;;
15933;SDS011;8066;48.776;11.384;2022-07-22T05:14:35;9.93;;;8.30;;
15933;SDS011;8066;48.776;11.384;2022-07-22T05:17:01;11.10;;;8.50;;
15933;SDS011;8066;48.776;11.384;2022-07-22T05:19:28;10.50;;;9.25;;
15933;SDS011;8066;48.776;11.384;2022-07-22T05:21:57;10.18;;;8.48;;
15933;SDS011;8066;48.776;11.384;2022-07-22T05:24:23;11.50;;;8.63;;
15933;SDS011;8066;48.776;11.384;2022-07-22T05:26:50;10.85;;;9.40;;
15933;SDS011;8066;48.776;11.384;2022-07-22T05:29:17;11.23;;;9.40;;
15933;SDS011;8066;48.776;11.384;2022-07-22T05:31:44;9.85;;;8.55;;
15933;SDS011;8066;48.776;11.384;2022-07-22T05:34:11;10.68;;;9.05;;
15933;SDS011;8066;48.776;11.384;2022-07-22T05:36:38;10.15;;;8.82;;
15933;SDS011;8066;48.776;11.384;2022-07-22T05:39:06;9.75;;;8.25;;
15933;SDS011;8066;48.776;11.384;2022-07-22T05:41:33;13.90;;;9.25;;
15933;SDS011;8066;48.776;11.384;2022-07-22T05:44:00;11.27;;;9.60;;
15933;SDS011;8066;48.776;11.384;2022-07-22T05:46:27;10.70;;;9.07;;
15933;SDS011;8066;48.776;11.384;2022-07-22T05:48:53;11.95;;;9.95;;
15933;SDS011;8066;48.776;11.384;2022-07-22T05:51:21;13.10;;;10.20;;
15933;SDS011;8066;48.776;11.384;2022-07-22T05:53:48;12.93;;;10.98;;
15933;SDS011;8066;48.776;11.384;2022-07-22T05:56:16;13.98;;;12.35;;
15933;SDS011;8066;48.776;11.384;2022-07-22T05:58:43;13.32;;;11.93;;
15933;SDS011;8066;48.776;11.384;2022-07-22T06:01:10;14.38;;;11.80;;
15933;SDS011;8066;48.776;11.384;2022-07-22T06:03:38;13.48;;;11.60;;
15933;SDS011;8066;48.776;11.384;2022-07-22T06:06:05;12.50;;;10.93;;
15933;SDS011;8066;48.776;11.384;2022-07-22T06:08:33;15.00;;;11.25;;
15933;SDS011;8066;48.776;11.384;2022-07-22T06:11:01;12.00;;;10.55;;
15933;SDS011;8066;48.776;11.384;2022-07-22T06:13:29;11.60;;;10.02;;
15933;SDS011;8066;48.776;11.384;2022-07-22T06:15:56;13.50;;;10.30;;
15933;SDS011;8066;48.776;11.384;2022-07-22T06:18:23;14.02;;;11.30;;
15933;SDS011;8066;48.776;11.384;2022-07-22T06:20:50;13.82;;;10.65;;
15933;SDS011;8066;48.776;11.384;2022-07-22T06:23:17;12.05;;;10.65;;
15933;SDS011;8066;48.776;11.384;2022-07-22T06:25:44;15.10;;;11.65;;
15933;SDS011;8066;48.776;11.384;2022-07-22T06:28:11;11.93;;;10.48;;
15933;SDS011;8066;48.776;11.384;2022-07-22T06:30:39;13.20;;;10.52;;
15933;SDS011;8066;48.776;11.384;2022-07-22T06:33:07;13.75;;;10.85;;
15933;SDS011;8066;48.776;11.384;2022-07-22T06:35:34;12.43;;;10.60;;
15933;SDS011;8066;48.776;11.384;2022-07-22T06:38:04;10.38;;;9.32;;
15933;SDS011;8066;48.776;11.384;2022-07-22T06:40:31;9.98;;;8.73;;
15933;SDS011;8066;48.776;11.384;2022-07-22T06:42:58;11.38;;;8.65;;
15933;SDS011;8066;48.776;11.384;2022-07-22T06:45:25;8.45;;;7.32;;
15933;SDS011;8066;48.776;11.384;2022-07-22T06:47:54;7.75;;;6.20;;
15933;SDS011;8066;48.776;11.384;2022-07-22T06:50:21;8.52;;;6.50;;
15933;SDS011;8066;48.776;11.384;2022-07-22T06:52:48;6.65;;;5.90;;
15933;SDS011;8066;48.776;11.384;2022-07-22T06:55:15;8.48;;;6.05;;
15933;SDS011;8066;48.776;11.384;2022-07-22T06:57:42;7.72;;;6.03;;
15933;SDS011;8066;48.776;11.384;2022-07-22T07:00:09;9.20;;;6.65;;
15933;SDS011;8066;48.776;11.384;2022-07-22T07:02:38;7.63;;;5.75;;
15933;SDS011;8066;48.776;11.384;2022-07-22T07:05:07;6.85;;;5.63;;
15933;SDS011;8066;48.776;11.384;2022-07-22T07:07:34;7.25;;;5.85;;
15933;SDS011;8066;48.776;11.384;2022-07-22T07:10:01;7.45;;;5.93;;
15933;SDS011;8066;48.776;11.384;2022-07-22T07:12:29;8.20;;;5.57;;
15933;SDS011;8066;48.776;11.384;2022-07-22T07:14:56;6.90;;;5.75;;
15933;SDS011;8066;48.776;11.384;2022-07-22T07:17:23;7.00;;;5.53;;
15933;SDS011;8066;48.776;11.384;2022-07-22T07:19:50;7.20;;;5.63;;
15933;SDS011;8066;48.776;11.384;2022-07-22T07:22:19;6.38;;;5.25;;
15933;SDS011;8066;48.776;11.384;2022-07-22T07:24:46;6.95;;;5.28;;
15933;SDS011;8066;48.776;11.384;2022-07-22T07:27:12;7.32;;;5.70;;
15933;SDS011;8066;48.776;11.384;2022-07-22T07:29:39;5.30;;;4.80;;
15933;SDS011;8066;48.776;11.384;2022-07-22T07:32:06;6.55;;;5.70;;
15933;SDS011;8066;48.776;11.384;2022-07-22T07:34:33;6.45;;;5.70;;
15933;SDS011;8066;48.776;11.384;2022-07-22T07:37:00;6.03;;;5.43;;
15933;SDS011;8066;48.776;11.384;2022-07-22T07:39:28;6.75;;;5.07;;
15933;SDS011;8066;48.776;11.384;2022-07-22T07:41:55;6.03;;;5.43;;
15933;SDS011;8066;48.776;11.384;2022-07-22T07:44:22;5.95;;;5.22;;
15933;SDS011;8066;48.776;11.384;2022-07-22T07:46:49;5.82;;;5.22;;
15933;SDS011;8066;48.776;11.384;2022-07-22T07:49:16;6.55;;;5.88;;
15933;SDS011;8066;48.776;11.384;2022-07-22T07:51:43;7.05;;;5.40;;
15933;SDS011;8066;48.776;11.384;2022-07-22T07:54:10;6.18;;;5.20;;
15933;SDS011;8066;48.776;11.384;2022-07-22T07:56:38;6.00;;;5.32;;
15933;SDS011;8066;48.776;11.384;2022-07-22T07:59:05;6.05;;;5.45;;
15933;SDS011;8066;48.776;11.384;2022-07-22T08:01:32;5.72;;;5.22;;
15933;SDS011;8066;48.776;11.384;2022-07-22T08:03:58;5.00;;;4.55;;
15933;SDS011;8066;48.776;11.384;2022-07-22T08:06:25;4.88;;;4.38;;
15933;SDS011;8066;48.776;11.384;2022-07-22T08:08:52;5.22;;;4.72;;
15933;SDS011;8066;48.776;11.384;2022-07-22T08:11:19;5.70;;;4.70;;
15933;SDS011;8066;48.776;11.384;2022-07-22T08:13:50;6.00;;;4.82;;
15933;SDS011;8066;48.776;11.384;2022-07-22T08:16:17;5.57;;;5.07;;
15933;SDS011;8066;48.776;11.384;2022-07-22T08:18:44;5.68;;;5.13;;
15933;SDS011;8066;48.776;11.384;2022-07-22T08:21:11;5.47;;;4.97;;
15933;SDS011;8066;48.776;11.384;2022-07-22T08:23:38;6.07;;;5.30;;
15933;SDS011;8066;48.776;11.384;2022-07-22T08:26:05;5.53;;;5.05;;
15933;SDS011;8066;48.776;11.384;2022-07-22T08:28:31;6.18;;;5.45;;
15933;SDS011;8066;48.776;11.384;2022-07-22T08:31:00;6.07;;;5.40;;
15933;SDS011;8066;48.776;11.384;2022-07-22T08:33:27;6.60;;;5.63;;
15933;SDS011;8066;48.776;11.384;2022-07-22T08:35:54;5.47;;;4.97;;
15933;SDS011;8066;48.776;11.384;2022-07-22T08:38:20;6.10;;;5.00;;
15933;SDS011;8066;48.776;11.384;2022-07-22T08:40:47;6.72;;;6.03;;
15933;SDS011;8066;48.776;11.384;2022-07-22T08:43:15;6.65;;;6.00;;
15933;SDS011;8066;48.776;11.384;2022-07-22T08:45:42;6.57;;;6.00;;
15933;SDS011;8066;48.776;11.384;2022-07-22T08:48:10;6.55;;;5.97;;
15933;SDS011;8066;48.776;11.384;2022-07-22T08:50:37;6.60;;;6.00;;
15933;SDS011;8066;48.776;11.384;2022-07-22T08:53:04;6.78;;;6.18;;
15933;SDS011;8066;48.776;11.384;2022-07-22T08:55:39;6.90;;;6.20;;
15933;SDS011;8066;48.776;11.384;2022-07-22T08:58:08;6.43;;;5.82;;
15933;SDS011;8066;48.776;11.384;2022-07-22T09:00:35;6.75;;;5.63;;
15933;SDS011;8066;48.776;11.384;2022-07-22T09:03:03;6.22;;;5.65;;
15933;SDS011;8066;48.776;11.384;2022-07-22T09:05:48;5.90;;;5.30;;
15933;SDS011;8066;48.776;11.384;2022-07-22T09:08:17;6.78;;;6.07;;
15933;SDS011;8066;48.776;11.384;2022-07-22T09:10:44;6.85;;;6.25;;
15933;SDS011;8066;48.776;11.384;2022-07-22T09:13:12;6.20;;;5.53;;
15933;SDS011;8066;48.776;11.384;2022-07-22T09:15:45;6.72;;;5.43;;
15933;SDS011;8066;48.776;11.384;2022-07-22T09:18:14;7.18;;;5.60;;
15933;SDS011;8066;48.776;11.384;2022-07-22T09:20:43;8.48;;;7.50;;
15933;SDS011;8066;48.776;11.384;2022-07-22T09:23:11;8.43;;;6.43;;
15933;SDS011;8066;48.776;11.384;2022-07-22T09:25:40;8.40;;;6.65;;
15933;SDS011;8066;48.776;11.384;2022-07-22T09:28:15;6.32;;;5.68;;
15933;SDS011;8066;48.776;11.384;2022-07-22T09:30:47;6.13;;;5.47;;
15933;SDS011;8066;48.776;11.384;2022-07-22T09:33:16;5.97;;;5.43;;
15933;SDS011;8066;48.776;11.384;2022-07-22T09:35:45;6.50;;;5.80;;
15933;SDS011;8066;48.776;11.384;2022-07-22T09:38:14;5.82;;;5.30;;
15933;SDS011;8066;48.776;11.384;2022-07-22T09:40:43;6.22;;;5.55;;
15933;SDS011;8066;48.776;11.384;2022-07-22T09:43:13;7.07;;;5.82;;
15933;SDS011;8066;48.776;11.384;2022-07-22T09:45:46;7.32;;;6.15;;
15933;SDS011;8066;48.776;11.384;2022-07-22T09:48:16;8.80;;;6.65;;
15933;SDS011;8066;48.776;11.384;2022-07-22T09:50:46;6.85;;;6.15;;
15933;SDS011;8066;48.776;11.384;2022-07-22T09:53:15;7.18;;;6.40;;
15933;SDS011;8066;48.776;11.384;2022-07-22T09:55:44;7.25;;;6.20;;
15933;SDS011;8066;48.776;11.384;2022-07-22T09:58:11;6.18;;;5.57;;
15933;SDS011;8066;48.776;11.384;2022-07-22T10:00:41;7.28;;;6.10;;
15933;SDS011;8066;48.776;11.384;2022-07-22T10:03:10;7.80;;;6.05;;
15933;SDS011;8066;48.776;11.384;2022-07-22T10:05:42;8.68;;;6.82;;
15933;SDS011;8066;48.776;11.384;2022-07-22T10:08:10;7.78;;;6.30;;
15933;SDS011;8066;48.776;11.384;2022-07-22T10:10:37;7.20;;;6.50;;
15933;SDS011;8066;48.776;11.384;2022-07-22T10:13:06;8.00;;;6.15;;
15933;SDS011;8066;48.776;11.384;2022-07-22T10:15:34;6.45;;;5.85;;
15933;SDS011;8066;48.776;11.384;2022-07-22T10:18:04;6.47;;;5.88;;
15933;SDS011;8066;48.776;11.384;2022-07-22T10:20:34;8.02;;;5.70;;
15933;SDS011;8066;48.776;11.384;2022-07-22T10:23:02;6.63;;;6.03;;
15933;SDS011;8066;48.776;11.384;2022-07-22T10:25:33;6.82;;;6.18;;
15933;SDS011;8066;48.776;11.384;2022-07-22T10:28:20;7.50;;;6.13;;
15933;SDS011;8066;48.776;11.384;2022-07-22T10:30:51;7.28;;;6.65;;
15933;SDS011;8066;48.776;11.384;2022-07-22T10:33:20;6.68;;;6.05;;
15933;SDS011;8066;48.776;11.384;2022-07-22T10:35:56;7.22;;;6.57;;
15933;SDS011;8066;48.776;11.384;2022-07-22T10:38:25;6.78;;;6.07;;
15933;SDS011;8066;48.776;11.384;2022-07-22T10:40:55;7.35;;;6.65;;
15933;SDS011;8066;48.776;11.384;2022-07-22T10:43:27;7.60;;;6.63;;
15933;SDS011;8066;48.776;11.384;2022-07-22T10:45:55;6.70;;;6.07;;
15933;SDS011;8066;48.776;11.384;2022-07-22T10:48:24;7.20;;;6.47;;
15933;SDS011;8066;48.776;11.384;2022-07-22T10:51:13;6.68;;;6.07;;
15933;SDS011;8066;48.776;11.384;2022-07-22T10:53:46;7.35;;;6.30;;
15933;SDS011;8066;48.776;11.384;2022-07-22T10:56:21;5.75;;;5.22;;
15933;SDS011;8066;48.776;11.384;2022-07-22T10:58:53;5.93;;;5.43;;
15933;SDS011;8066;48.776;11.384;2022-07-22T11:01:24;6.28;;;5.68;;
15933;SDS011;8066;48.776;11.384;2022-07-22T11:03:54;5.75;;;4.97;;
15933;SDS011;8066;48.776;11.384;2022-07-22T11:06:32;5.50;;;5.00;;
15933;SDS011;8066;48.776;11.384;2022-07-22T11:09:00;5.80;;;5.30;;
15933;SDS011;8066;48.776;11.384;2022-07-22T11:11:32;6.00;;;5.50;;
15933;SDS011;8066;48.776;11.384;2022-07-22T11:14:19;4.97;;;4.57;;
15933;SDS011;8066;48.776;11.384;2022-07-22T11:16:53;5.05;;;4.55;;
15933;SDS011;8066;48.776;11.384;2022-07-22T11:19:22;4.95;;;4.55;;
15933;SDS011;8066;48.776;11.384;2022-07-22T11:21:52;5.18;;;4.60;;
15933;SDS011;8066;48.776;11.384;2022-07-22T11:24:21;5.00;;;4.60;;
15933;SDS011;8066;48.776;11.384;2022-07-22T11:26:52;4.80;;;4.30;;
15933;SDS011;8066;48.776;11.384;2022-07-22T11:29:24;4.80;;;4.40;;
15933;SDS011;8066;48.776;11.384;2022-07-22T11:31:54;7.57;;;4.85;;
15933;SDS011;8066;48.776;11.384;2022-07-22T11:34:24;4.78;;;4.38;;
15933;SDS011;8066;48.776;11.384;2022-07-22T11:36:53;4.90;;;4.50;;
15933;SDS011;8066;48.776;11.384;2022-07-22T11:39:23;5.43;;;4.93;;
15933;SDS011;8066;48.776;11.384;2022-07-22T11:41:53;5.35;;;4.95;;
15933;SDS011;8066;48.776;11.384;2022-07-22T11:44:23;4.93;;;4.53;;
15933;SDS011;8066;48.776;11.384;2022-07-22T11:46:52;5.25;;;4.85;;
15933;SDS011;8066;48.776;11.384;2022-07-22T11:49:23;6.07;;;5.25;;
15933;SDS011;8066;48.776;11.384;2022-07-22T11:51:51;5.47;;;4.97;;
15933;SDS011;8066;48.776;11.384;2022-07-22T11:54:19;5.50;;;5.00;;
15933;SDS011;8066;48.776;11.384;2022-07-22T11:56:46;5.72;;;5.13;;
15933;SDS011;8066;48.776;11.384;2022-07-22T11:59:15;5.78;;;5.28;;
15933;SDS011;8066;48.776;11.384;2022-07-22T12:01:43;5.43;;;5.03;;
15933;SDS011;8066;48.776;11.384;2022-07-22T12:04:19;5.55;;;5.05;;
15933;SDS011;8066;48.776;11.384;2022-07-22T12:06:49;5.80;;;5.30;;
15933;SDS011;8066;48.776;11.384;2022-07-22T12:09:20;5.30;;;4.88;;
15933;SDS011;8066;48.776;11.384;2022-07-22T12:11:50;5.40;;;4.93;;
15933;SDS011;8066;48.776;11.384;2022-07-22T12:14:22;5.25;;;4.80;;
15933;SDS011;8066;48.776;11.384;2022-07-22T12:16:55;5.80;;;5.30;;
15933;SDS011;8066;48.776;11.384;2022-07-22T12:19:25;5.55;;;5.05;;
15933;SDS011;8066;48.776;11.384;2022-07-22T12:21:55;6.13;;;5.60;;
15933;SDS011;8066;48.776;11.384;2022-07-22T12:24:25;5.80;;;5.28;;
15933;SDS011;8066;48.776;11.384;2022-07-22T12:26:56;5.72;;;5.25;;
15933;SDS011;8066;48.776;11.384;2022-07-22T12:29:27;5.88;;;5.38;;
15933;SDS011;8066;48.776;11.384;2022-07-22T12:31:58;5.38;;;4.88;;
15933;SDS011;8066;48.776;11.384;2022-07-22T12:34:35;5.45;;;5.03;;
15933;SDS011;8066;48.776;11.384;2022-07-22T12:37:14;5.50;;;5.00;;
15933;SDS011;8066;48.776;11.384;2022-07-22T12:42:30;5.53;;;5.03;;
15933;SDS011;8066;48.776;11.384;2022-07-22T12:45:02;5.97;;;5.47;;
15933;SDS011;8066;48.776;11.384;2022-07-22T12:47:39;5.55;;;5.00;;
15933;SDS011;8066;48.776;11.384;2022-07-22T12:50:22;5.97;;;5.38;;
15933;SDS011;8066;48.776;11.384;2022-07-22T12:52:53;5.28;;;4.88;;
15933;SDS011;8066;48.776;11.384;2022-07-22T12:55:22;5.65;;;5.03;;
15933;SDS011;8066;48.776;11.384;2022-07-22T12:57:50;5.43;;;4.93;;
15933;SDS011;8066;48.776;11.384;2022-07-22T13:00:19;5.43;;;4.93;;
15933;SDS011;8066;48.776;11.384;2022-07-22T13:02:48;5.15;;;4.65;;
15933;SDS011;8066;48.776;11.384;2022-07-22T13:05:15;5.30;;;4.80;;
15933;SDS011;8066;48.776;11.384;2022-07-22T13:07:42;6.05;;;5.32;;
15933;SDS011;8066;48.776;11.384;2022-07-22T13:10:10;5.60;;;4.68;;
15933;SDS011;8066;48.776;11.384;2022-07-22T13:12:38;5.22;;;4.82;;
15933;SDS011;8066;48.776;11.384;2022-07-22T13:15:06;5.40;;;4.93;;
15933;SDS011;8066;48.776;11.384;2022-07-22T13:17:35;5.15;;;4.65;;
15933;SDS011;8066;48.776;11.384;2022-07-22T13:20:04;5.40;;;4.90;;
15933;SDS011;8066;48.776;11.384;2022-07-22T13:22:32;5.30;;;4.80;;
15933;SDS011;8066;48.776;11.384;2022-07-22T13:25:00;6.13;;;5.03;;
15933;SDS011;8066;48.776;11.384;2022-07-22T13:27:27;5.50;;;5.00;;
15933;SDS011;8066;48.776;11.384;2022-07-22T13:29:54;5.05;;;4.65;;
15933;SDS011;8066;48.776;11.384;2022-07-22T13:32:20;5.55;;;5.00;;
15933;SDS011;8066;48.776;11.384;2022-07-22T13:34:49;5.25;;;4.75;;
15933;SDS011;8066;48.776;11.384;2022-07-22T13:37:16;5.30;;;4.80;;
15933;SDS011;8066;48.776;11.384;2022-07-22T13:39:43;5.35;;;4.85;;
15933;SDS011;8066;48.776;11.384;2022-07-22T13:42:10;5.10;;;4.70;;
15933;SDS011;8066;48.776;11.384;2022-07-22T13:44:38;5.60;;;4.68;;
15933;SDS011;8066;48.776;11.384;2022-07-22T13:47:05;4.85;;;4.45;;
15933;SDS011;8066;48.776;11.384;2022-07-22T13:49:32;5.55;;;4.82;;
15933;SDS011;8066;48.776;11.384;2022-07-22T13:52:00;6.43;;;4.97;;
15933;SDS011;8066;48.776;11.384;2022-07-22T13:54:27;5.63;;;5.03;;
15933;SDS011;8066;48.776;11.384;2022-07-22T13:56:55;5.00;;;4.50;;
15933;SDS011;8066;48.776;11.384;2022-07-22T13:59:22;6.53;;;5.93;;
15933;SDS011;8066;48.776;11.384;2022-07-22T14:01:50;5.20;;;4.70;;
15933;SDS011;8066;48.776;11.384;2022-07-22T14:04:17;5.22;;;4.72;;
15933;SDS011;8066;48.776;11.384;2022-07-22T14:06:44;5.18;;;4.68;;
15933;SDS011;8066;48.776;11.384;2022-07-22T14:09:13;4.93;;;4.47;;
15933;SDS011;8066;48.776;11.384;2022-07-22T14:11:40;5.20;;;4.68;;
15933;SDS011;8066;48.776;11.384;2022-07-22T14:14:07;4.97;;;4.47;;
15933;SDS011;8066;48.776;11.384;2022-07-22T14:16:34;4.70;;;4.30;;
15933;SDS011;8066;48.776;11.384;2022-07-22T14:19:02;4.60;;;4.20;;
15933;SDS011;8066;48.776;11.384;2022-07-22T14:21:32;4.65;;;4.25;;
15933;SDS011;8066;48.776;11.384;2022-07-22T14:24:00;5.00;;;4.50;;
15933;SDS011;8066;48.776;11.384;2022-07-22T14:26:28;4.85;;;4.45;;
15933;SDS011;8066;48.776;11.384;2022-07-22T14:28:55;5.18;;;4.68;;
15933;SDS011;8066;48.776;11.384;2022-07-22T14:31:22;5.47;;;4.97;;
15933;SDS011;8066;48.776;11.384;2022-07-22T14:33:50;7.07;;;4.72;;
15933;SDS011;8066;48.776;11.384;2022-07-22T14:36:17;5.03;;;4.53;;
15933;SDS011;8066;48.776;11.384;2022-07-22T14:38:44;5.85;;;5.25;;
15933;SDS011;8066;48.776;11.384;2022-07-22T14:41:11;6.72;;;5.05;;
15933;SDS011;8066;48.776;11.384;2022-07-22T14:43:39;5.22;;;4.80;;
15933;SDS011;8066;48.776;11.384;2022-07-22T14:46:06;5.65;;;5.15;;
15933;SDS011;8066;48.776;11.384;2022-07-22T14:48:34;6.00;;;5.03;;
15933;SDS011;8066;48.776;11.384;2022-07-22T14:51:02;6.03;;;4.88;;
15933;SDS011;8066;48.776;11.384;2022-07-22T14:53:29;5.72;;;4.80;;